createdAt,value
2018-01-10T00:01:33.296Z,12.67
2018-01-10T00:04:00.814Z,9.03
2018-01-10T00:06:29.060Z,10.40
2018-01-10T00:08:56.571Z,14.87
2018-01-10T00:11:24.050Z,17.70
2018-01-10T00:13:51.547Z,17.17
2018-01-10T00:16:19.824Z,14.27
2018-01-10T00:18:47.334Z,11.47
2018-01-10T00:21:14.857Z,12.90
2018-01-10T00:23:43.153Z,13.97
2018-01-10T00:26:10.619Z,12.83
2018-01-10T00:28:38.080Z,12.67
2018-01-10T00:31:05.596Z,8.57
2018-01-10T00:33:33.062Z,11.90
2018-01-10T00:36:00.611Z,11.20
2018-01-10T00:38:28.835Z,7.23
2018-01-10T00:40:56.327Z,10.00
2018-01-10T00:43:23.839Z,5.90
2018-01-10T00:45:51.298Z,9.63
2018-01-10T00:48:18.824Z,8.40
2018-01-10T00:50:47.085Z,9.27
2018-01-10T00:53:14.588Z,7.27
2018-01-10T00:55:42.063Z,9.63
2018-01-10T00:58:09.562Z,9.57
2018-01-10T01:00:37.040Z,13.20
2018-01-10T01:03:04.559Z,18.13
2018-01-10T01:05:32.021Z,11.13
2018-01-10T01:07:59.534Z,11.90
2018-01-10T01:10:26.990Z,12.83
2018-01-10T01:12:54.480Z,17.97
2018-01-10T01:15:21.946Z,20.93
2018-01-10T01:17:49.518Z,14.80
2018-01-10T01:20:17.035Z,12.67
2018-01-10T01:22:44.524Z,12.50
2018-01-10T01:25:12.047Z,15.63
2018-01-10T01:27:39.578Z,18.80
2018-01-10T01:30:07.851Z,13.30
2018-01-10T01:32:36.110Z,12.03
2018-01-10T01:35:03.610Z,15.50
2018-01-10T01:37:31.089Z,16.83
2018-01-10T01:39:58.608Z,15.80
2018-01-10T01:42:26.074Z,17.83
2018-01-10T01:44:53.560Z,18.20
2018-01-10T01:47:21.061Z,13.70
2018-01-10T01:49:48.597Z,11.90
2018-01-10T01:52:16.082Z,13.60
2018-01-10T01:54:44.319Z,15.30
2018-01-10T01:57:11.810Z,10.87
2018-01-10T01:59:40.060Z,10.67
2018-01-10T02:02:07.572Z,15.73
2018-01-10T02:04:35.035Z,14.80
2018-01-10T02:07:02.575Z,13.40
2018-01-10T02:09:30.818Z,13.60
2018-01-10T02:11:58.338Z,15.00
2018-01-10T02:14:25.808Z,11.40
2018-01-10T02:16:53.315Z,16.73
2018-01-10T02:19:21.570Z,20.20
2018-01-10T02:21:49.057Z,19.53
2018-01-10T02:24:16.576Z,24.60
2018-01-10T02:26:44.042Z,23.63
2018-01-10T02:29:11.533Z,20.53
2018-01-10T02:31:39.057Z,22.13
2018-01-10T02:34:06.561Z,18.80
2018-01-10T02:36:34.034Z,18.07
2018-01-10T02:39:01.519Z,24.90
2018-01-10T02:41:29.004Z,24.83
2018-01-10T02:43:56.646Z,22.43
2018-01-10T02:46:24.114Z,21.33
2018-01-10T02:48:51.598Z,24.80
2018-01-10T02:51:19.112Z,22.50
2018-01-10T02:53:46.617Z,25.93
2018-01-10T02:56:14.912Z,20.17
2018-01-10T02:58:42.371Z,22.23
2018-01-10T03:01:09.865Z,20.37
2018-01-10T03:03:38.107Z,19.43
2018-01-10T03:06:05.638Z,17.37
2018-01-10T03:08:33.872Z,21.30
2018-01-10T03:11:01.364Z,23.37
2018-01-10T03:13:29.600Z,18.90
2018-01-10T03:15:57.111Z,20.47
2018-01-10T03:18:24.691Z,25.63
2018-01-10T03:20:52.166Z,25.47
2018-01-10T03:23:19.675Z,30.63
2018-01-10T03:25:48.350Z,28.60
2018-01-10T03:28:15.810Z,26.43
2018-01-10T03:30:43.309Z,31.03
2018-01-10T03:33:10.812Z,23.87
2018-01-10T03:35:38.282Z,18.80
2018-01-10T03:38:06.549Z,20.17
2018-01-10T03:40:34.010Z,22.70
2018-01-10T03:43:01.503Z,22.40
2018-01-10T03:45:29.002Z,24.60
2018-01-10T03:47:56.710Z,28.97
2018-01-10T03:50:24.204Z,21.83
2018-01-10T03:52:51.668Z,20.90
2018-01-10T03:55:20.127Z,29.63
2018-01-10T03:57:47.607Z,29.10
2018-01-10T04:00:15.099Z,23.60
2018-01-10T04:02:42.563Z,27.77
2018-01-10T04:05:10.860Z,23.60
2018-01-10T04:07:38.437Z,28.90
2018-01-10T04:10:05.964Z,24.60
2018-01-10T04:12:34.213Z,22.83
2018-01-10T04:15:01.673Z,23.77
2018-01-10T04:17:29.189Z,24.10
2018-01-10T04:19:56.673Z,23.13
2018-01-10T04:22:24.168Z,24.57
2018-01-10T04:24:51.665Z,21.23
2018-01-10T04:27:19.160Z,18.90
2018-01-10T04:29:46.637Z,16.00
2018-01-10T04:32:14.168Z,20.93
2018-01-10T04:34:41.629Z,14.90
2018-01-10T04:37:09.140Z,15.70
2018-01-10T04:39:36.626Z,18.13
2018-01-10T04:42:04.132Z,20.00
2018-01-10T04:44:32.380Z,22.70
2018-01-10T04:46:59.922Z,17.73
2018-01-10T04:49:27.416Z,18.70
2018-01-10T04:51:54.947Z,15.13
2018-01-10T04:54:22.420Z,16.27
2018-01-10T04:56:49.877Z,13.07
2018-01-10T04:59:17.394Z,16.83
2018-01-10T05:01:44.887Z,17.40
2018-01-10T05:04:12.380Z,19.30
2018-01-10T05:06:39.965Z,14.37
2018-01-10T05:09:07.472Z,15.93
2018-01-10T05:11:34.988Z,16.00
2018-01-10T05:14:02.510Z,15.60
2018-01-10T05:16:30.796Z,16.30
2018-01-10T05:18:59.121Z,19.53
2018-01-10T05:21:26.576Z,19.90
2018-01-10T05:23:54.060Z,23.23
2018-01-10T05:26:21.564Z,18.37
2018-01-10T05:28:49.043Z,17.43
2018-01-10T05:31:16.582Z,18.33
2018-01-10T05:33:44.062Z,20.27
2018-01-10T05:36:11.568Z,20.40
2018-01-10T05:38:39.832Z,18.90
2018-01-10T05:41:07.644Z,29.20
2018-01-10T05:43:35.251Z,35.67
2018-01-10T05:46:02.968Z,36.13
2018-01-10T05:48:30.533Z,43.17
2018-01-10T05:50:58.044Z,52.40
2018-01-10T05:53:25.595Z,42.40
2018-01-10T05:55:53.090Z,28.63
2018-01-10T05:58:20.636Z,32.47
2018-01-10T06:00:48.358Z,22.10
2018-01-10T06:03:15.890Z,22.80
2018-01-10T06:05:44.298Z,25.57
2018-01-10T06:08:11.935Z,27.57
2018-01-10T06:10:39.433Z,26.90
2018-01-10T06:13:07.110Z,22.63
2018-01-10T06:15:34.552Z,24.57
2018-01-10T06:18:02.016Z,29.57
2018-01-10T06:20:29.701Z,23.90
2018-01-10T06:22:57.932Z,19.60
2018-01-10T06:25:25.454Z,16.77
2018-01-10T06:27:52.923Z,25.93
2018-01-10T06:30:20.452Z,21.57
2018-01-10T06:32:47.968Z,24.10
2018-01-10T06:35:16.246Z,25.70
2018-01-10T06:37:43.711Z,26.33
2018-01-10T06:40:11.246Z,23.37
2018-01-10T06:42:38.722Z,25.20
2018-01-10T06:45:06.229Z,21.37
2018-01-10T06:47:33.696Z,21.90
2018-01-10T06:50:01.167Z,29.43
2018-01-10T06:52:28.688Z,22.57
2018-01-10T06:54:56.923Z,19.87
2018-01-10T06:57:24.424Z,23.77
2018-01-10T06:59:51.948Z,22.47
2018-01-10T07:02:19.449Z,20.17
2018-01-10T07:04:46.918Z,19.50
2018-01-10T07:07:14.408Z,23.57
2018-01-10T07:09:41.870Z,23.97
2018-01-10T07:12:09.376Z,20.17
2018-01-10T07:14:36.855Z,17.10
2018-01-10T07:17:04.390Z,26.60
2018-01-10T07:19:31.865Z,19.40
2018-01-10T07:21:59.337Z,33.13
2018-01-10T07:24:26.834Z,25.67
2018-01-10T07:26:54.310Z,25.63
2018-01-10T07:29:22.585Z,37.10
2018-01-10T07:31:50.817Z,29.07
2018-01-10T07:34:18.328Z,39.63
2018-01-10T07:36:45.804Z,34.87
2018-01-10T07:39:13.312Z,36.43
2018-01-10T07:41:40.776Z,34.30
2018-01-10T07:44:08.284Z,26.60
2018-01-10T07:46:35.756Z,49.57
2018-01-10T07:49:03.315Z,35.10
2018-01-10T07:51:30.852Z,39.00
2018-01-10T07:53:58.614Z,33.20
2018-01-10T07:56:26.116Z,29.27
2018-01-10T07:58:53.675Z,24.53
2018-01-10T08:01:21.144Z,29.13
2018-01-10T08:03:48.606Z,30.57
2018-01-10T08:06:16.890Z,26.10
2018-01-10T08:08:45.114Z,27.17
2018-01-10T08:11:12.623Z,26.17
2018-01-10T08:13:40.878Z,23.97
2018-01-10T08:16:08.397Z,26.47
2018-01-10T08:18:35.920Z,21.60
2018-01-10T08:21:04.211Z,28.53
2018-01-10T08:23:31.670Z,29.03
2018-01-10T08:25:59.171Z,23.93
2018-01-10T08:28:26.654Z,26.63
2018-01-10T08:30:54.152Z,24.37
2018-01-10T08:33:21.633Z,23.73
2018-01-10T08:35:49.140Z,23.30
2018-01-10T08:38:17.373Z,29.50
2018-01-10T08:40:44.894Z,20.10
2018-01-10T08:43:12.381Z,16.30
2018-01-10T08:45:39.894Z,12.57
2018-01-10T08:48:08.125Z,8.67
2018-01-10T08:50:35.616Z,7.73
2018-01-10T08:53:03.933Z,9.03
2018-01-10T08:55:31.411Z,7.20
2018-01-10T08:57:58.950Z,9.27
2018-01-10T09:00:26.465Z,10.63
2018-01-10T09:02:53.941Z,8.77
2018-01-10T09:05:21.447Z,8.17
2018-01-10T09:07:49.724Z,7.33
2018-01-10T09:10:17.228Z,4.93
2018-01-10T09:12:45.456Z,9.13
2018-01-10T09:15:13.159Z,11.20
2018-01-10T09:17:40.617Z,7.93
2018-01-10T09:20:08.882Z,6.50
2018-01-10T09:22:36.342Z,5.83
2018-01-10T09:25:03.847Z,7.37
2018-01-10T09:27:31.336Z,7.27
2018-01-10T09:29:58.827Z,6.33
2018-01-10T09:32:27.092Z,7.57
2018-01-10T09:34:54.557Z,7.07
2018-01-10T09:37:22.809Z,8.43
2018-01-10T09:39:50.328Z,5.37
2018-01-10T09:42:17.810Z,7.83
2018-01-10T09:44:45.281Z,5.40
2018-01-10T09:47:12.771Z,4.57
2018-01-10T09:49:41.066Z,5.87
2018-01-10T09:52:08.569Z,8.30
2018-01-10T09:54:36.057Z,7.97
2018-01-10T09:57:04.291Z,6.30
2018-01-10T09:59:31.812Z,11.23
2018-01-10T10:01:59.465Z,10.97
2018-01-10T10:04:27.696Z,10.57
2018-01-10T10:06:55.207Z,8.40
2018-01-10T10:09:22.736Z,6.40
2018-01-10T10:11:50.204Z,4.53
2018-01-10T10:14:18.474Z,5.27
2018-01-10T10:16:46.727Z,6.57
2018-01-10T10:19:14.224Z,7.60
2018-01-10T10:21:42.475Z,6.80
2018-01-10T10:24:09.984Z,7.40
2018-01-10T10:26:37.466Z,6.03
2018-01-10T10:29:04.967Z,5.43
2018-01-10T10:31:33.201Z,7.60
2018-01-10T10:34:00.736Z,5.27
2018-01-10T10:36:28.196Z,5.67
2018-01-10T10:38:55.737Z,6.63
2018-01-10T10:41:23.210Z,7.90
2018-01-10T10:43:50.763Z,5.37
2018-01-10T10:46:18.224Z,5.50
2018-01-10T10:48:45.756Z,5.13
2018-01-10T10:51:13.974Z,6.07
2018-01-10T10:53:41.476Z,5.57
2018-01-10T10:56:09.721Z,7.27
2018-01-10T10:58:37.241Z,4.87
2018-01-10T11:01:04.708Z,5.30
2018-01-10T11:03:32.179Z,4.80
2018-01-10T11:05:59.674Z,5.97
2018-01-10T11:08:27.138Z,4.70
2018-01-10T11:10:55.403Z,6.07
2018-01-10T11:13:22.910Z,6.57
2018-01-10T11:15:50.438Z,6.80
2018-01-10T11:18:18.716Z,6.20
2018-01-10T11:20:46.968Z,7.97
2018-01-10T11:23:14.462Z,8.00
2018-01-10T11:25:41.944Z,6.67
2018-01-10T11:28:21.188Z,4.67
2018-01-10T11:30:48.658Z,5.60
2018-01-10T11:33:16.153Z,5.73
2018-01-10T11:35:44.424Z,5.97
2018-01-10T11:38:12.733Z,6.67
2018-01-10T11:40:40.235Z,7.20
2018-01-10T11:43:07.683Z,6.70
2018-01-10T11:45:35.180Z,4.83
2018-01-10T11:48:03.422Z,6.73
2018-01-10T11:50:30.919Z,6.30
2018-01-10T11:52:59.167Z,5.17
2018-01-10T11:55:26.676Z,7.20
2018-01-10T11:57:54.176Z,7.30
2018-01-10T12:00:21.648Z,5.50
2018-01-10T12:02:49.103Z,6.53
2018-01-10T12:05:16.595Z,7.10
2018-01-10T12:07:44.100Z,3.63
2018-01-10T12:10:11.598Z,5.27
2018-01-10T12:12:39.845Z,4.00
2018-01-10T12:15:07.345Z,4.03
2018-01-10T12:17:34.803Z,8.03
2018-01-10T12:20:02.313Z,6.03
2018-01-10T12:22:29.786Z,6.00
2018-01-10T12:24:57.310Z,7.87
2018-01-10T12:27:24.793Z,8.87
2018-01-10T12:29:52.278Z,6.60
2018-01-10T12:32:20.537Z,5.43
2018-01-10T12:34:48.027Z,4.00
2018-01-10T12:37:15.499Z,3.53
2018-01-10T12:39:42.984Z,5.47
2018-01-10T12:42:11.220Z,3.93
2018-01-10T12:44:38.717Z,5.23
2018-01-10T12:47:06.177Z,6.10
2018-01-10T12:49:33.684Z,5.63
2018-01-10T12:52:01.904Z,4.73
2018-01-10T12:54:29.422Z,5.50
2018-01-10T12:56:56.879Z,5.27
2018-01-10T12:59:24.376Z,5.67
2018-01-10T13:01:51.835Z,4.37
2018-01-10T13:04:19.316Z,5.10
2018-01-10T13:06:46.801Z,6.67
2018-01-10T13:09:15.080Z,3.47
2018-01-10T13:11:43.325Z,3.67
2018-01-10T13:14:10.805Z,5.53
2018-01-10T13:16:39.100Z,4.57
2018-01-10T13:19:06.575Z,5.53
2018-01-10T13:21:34.073Z,5.10
2018-01-10T13:24:01.537Z,6.97
2018-01-10T13:26:29.030Z,9.47
2018-01-10T13:28:56.489Z,6.60
2018-01-10T13:31:23.994Z,6.07
2018-01-10T13:33:51.474Z,7.10
2018-01-10T13:36:18.969Z,5.20
2018-01-10T13:38:46.442Z,6.17
2018-01-10T13:41:13.938Z,6.90
2018-01-10T13:43:41.403Z,5.33
2018-01-10T13:46:09.023Z,7.17
2018-01-10T13:48:36.485Z,6.63
2018-01-10T13:51:03.944Z,6.63
2018-01-10T13:53:31.442Z,6.47
2018-01-10T13:55:59.691Z,10.43
2018-01-10T13:58:27.236Z,6.77
2018-01-10T14:00:54.696Z,5.13
2018-01-10T14:03:22.977Z,7.53
2018-01-10T14:05:50.442Z,7.70
2018-01-10T14:08:17.938Z,4.00
2018-01-10T14:10:46.196Z,4.87
2018-01-10T14:13:13.690Z,6.43
2018-01-10T14:15:41.151Z,7.43
2018-01-10T14:18:08.631Z,6.43
2018-01-10T14:20:36.087Z,5.37
2018-01-10T14:23:03.597Z,3.87
2018-01-10T14:25:31.833Z,7.37
2018-01-10T14:27:59.335Z,6.10
2018-01-10T14:30:27.564Z,6.40
2018-01-10T14:32:55.073Z,9.40
2018-01-10T14:35:22.560Z,4.30
2018-01-10T14:37:50.071Z,5.13
2018-01-10T14:40:18.323Z,4.20
2018-01-10T14:42:46.794Z,4.80
2018-01-10T14:45:14.270Z,5.80
2018-01-10T14:47:41.881Z,6.47
2018-01-10T14:50:09.353Z,5.03
2018-01-10T14:52:36.806Z,3.80
2018-01-10T14:55:04.342Z,4.77
2018-01-10T14:57:31.798Z,7.13
2018-01-10T14:59:59.319Z,5.90
2018-01-10T15:02:26.792Z,4.93
2018-01-10T15:04:55.078Z,4.80
2018-01-10T15:07:23.343Z,4.70
2018-01-10T15:09:51.618Z,4.17
2018-01-10T15:12:19.880Z,4.20
2018-01-10T15:14:47.374Z,5.47
2018-01-10T15:17:14.845Z,4.97
2018-01-10T15:19:42.406Z,4.77
2018-01-10T15:22:09.875Z,5.80
2018-01-10T15:24:37.360Z,5.87
2018-01-10T15:27:04.847Z,4.50
2018-01-10T15:29:33.115Z,3.67
2018-01-10T15:32:00.587Z,4.30
2018-01-10T15:34:28.848Z,9.57
2018-01-10T15:36:56.413Z,5.97
2018-01-10T15:39:24.678Z,5.80
2018-01-10T15:41:52.142Z,5.97
2018-01-10T15:44:19.640Z,5.47
2018-01-10T15:46:47.111Z,3.97
2018-01-10T15:49:14.619Z,5.70
2018-01-10T15:51:42.075Z,3.70
2018-01-10T15:54:10.360Z,6.93
2018-01-10T15:56:38.593Z,7.87
2018-01-10T15:59:06.112Z,5.10
2018-01-10T16:01:33.583Z,3.97
2018-01-10T16:04:01.264Z,4.07
2018-01-10T16:06:39.024Z,4.00
2018-01-10T16:09:07.398Z,3.80
2018-01-10T16:11:35.652Z,5.50
2018-01-10T16:14:03.134Z,5.50
2018-01-10T16:16:30.631Z,3.50
2018-01-10T16:18:58.104Z,5.83
2018-01-10T16:21:25.695Z,3.60
2018-01-10T16:23:53.917Z,4.63
2018-01-10T16:26:21.405Z,6.30
2018-01-10T16:28:48.899Z,3.97
2018-01-10T16:31:17.165Z,5.63
2018-01-10T16:33:45.411Z,4.20
2018-01-10T16:36:12.895Z,4.60
2018-01-10T16:38:41.133Z,5.83
2018-01-10T16:41:08.627Z,3.77
2018-01-10T16:43:36.878Z,5.07
2018-01-10T16:46:04.369Z,5.30
2018-01-10T16:48:32.603Z,5.03
2018-01-10T16:51:00.088Z,6.63
2018-01-10T16:53:27.575Z,6.40
2018-01-10T16:55:55.093Z,4.20
2018-01-10T16:58:22.579Z,4.97
2018-01-10T17:00:50.828Z,4.00
2018-01-10T17:03:18.282Z,4.20
2018-01-10T17:05:45.786Z,7.17
2018-01-10T17:08:13.258Z,5.00
2018-01-10T17:10:40.752Z,7.10
2018-01-10T17:13:08.229Z,5.03
2018-01-10T17:15:36.480Z,5.30
2018-01-10T17:18:03.948Z,4.63
2018-01-10T17:20:31.440Z,5.60
2018-01-10T17:22:58.976Z,5.40
2018-01-10T17:25:26.436Z,4.83
2018-01-10T17:27:53.944Z,6.43
2018-01-10T17:30:21.496Z,5.00
2018-01-10T17:32:48.970Z,5.50
2018-01-10T17:35:16.422Z,5.00
2018-01-10T17:37:43.923Z,6.20
2018-01-10T17:40:11.390Z,7.63
2018-01-10T17:42:39.649Z,7.53
2018-01-10T17:45:07.155Z,6.00
2018-01-10T17:47:34.668Z,7.43
2018-01-10T17:50:02.126Z,7.23
2018-01-10T17:52:29.627Z,8.83
2018-01-10T17:54:57.101Z,9.67
2018-01-10T17:57:24.611Z,9.10
2018-01-10T17:59:52.839Z,9.47
2018-01-10T18:02:20.327Z,12.03
2018-01-10T18:04:47.786Z,10.77
2018-01-10T18:07:15.317Z,10.20
2018-01-10T18:09:43.561Z,13.80
2018-01-10T18:12:11.091Z,11.60
2018-01-10T18:14:39.342Z,15.47
2018-01-10T18:17:06.836Z,18.33
2018-01-10T18:19:35.155Z,13.97
2018-01-10T18:22:02.654Z,20.30
2018-01-10T18:24:30.904Z,18.80
2018-01-10T18:26:58.403Z,22.23
2018-01-10T18:29:25.856Z,20.43
2018-01-10T18:31:54.106Z,24.13
2018-01-10T18:34:21.583Z,25.83
2018-01-10T18:36:49.844Z,19.20
2018-01-10T18:39:17.312Z,16.73
2018-01-10T18:41:45.575Z,14.63
2018-01-10T18:44:13.049Z,17.40
2018-01-10T18:46:41.293Z,16.73
2018-01-10T18:49:09.557Z,14.47
2018-01-10T18:51:37.043Z,15.97
2018-01-10T18:54:04.556Z,16.57
2018-01-10T18:56:32.030Z,15.93
2018-01-10T18:58:59.541Z,13.30
2018-01-10T19:01:27.788Z,14.10
2018-01-10T19:03:55.295Z,18.50
2018-01-10T19:06:22.764Z,15.60
2018-01-10T19:08:50.259Z,14.73
2018-01-10T19:11:17.734Z,16.53
2018-01-10T19:13:46.062Z,14.10
2018-01-10T19:16:13.545Z,13.23
2018-01-10T19:18:41.121Z,14.27
2018-01-10T19:21:08.686Z,18.27
2018-01-10T19:23:36.342Z,15.90
2018-01-10T19:26:03.846Z,19.07
2018-01-10T19:28:32.304Z,24.37
2018-01-10T19:31:00.552Z,25.00
2018-01-10T19:33:28.057Z,21.10
2018-01-10T19:35:55.607Z,19.37
2018-01-10T19:38:24.436Z,20.33
2018-01-10T19:40:51.940Z,19.73
2018-01-10T19:43:20.296Z,18.97
2018-01-10T19:45:47.776Z,18.50
2018-01-10T19:48:16.088Z,18.27
2018-01-10T19:50:43.581Z,15.53
2018-01-10T19:53:11.066Z,20.30
2018-01-10T19:55:39.371Z,16.67
2018-01-10T19:58:06.882Z,19.60
2018-01-10T20:00:34.363Z,20.80
2018-01-10T20:03:02.846Z,21.83
2018-01-10T20:05:31.074Z,16.03
2018-01-10T20:07:58.556Z,19.60
2018-01-10T20:10:26.072Z,22.20
2018-01-10T20:12:53.575Z,18.77
2018-01-10T20:15:21.109Z,22.50
2018-01-10T20:17:48.584Z,15.60
2018-01-10T20:20:16.109Z,16.23
2018-01-10T20:22:43.620Z,21.80
2018-01-10T20:25:11.142Z,23.00
2018-01-10T20:27:38.625Z,24.90
2018-01-10T20:30:06.119Z,15.70
2018-01-10T20:32:33.601Z,20.73
2018-01-10T20:35:01.143Z,14.63
2018-01-10T20:37:28.621Z,21.77
2018-01-10T20:39:56.138Z,18.77
2018-01-10T20:42:24.397Z,25.80
2018-01-10T20:44:52.681Z,20.40
2018-01-10T20:47:20.950Z,16.90
2018-01-10T20:49:48.456Z,19.00
2018-01-10T20:52:15.984Z,15.80
2018-01-10T20:54:44.269Z,24.23
2018-01-10T20:57:11.732Z,24.27
2018-01-10T20:59:39.268Z,25.00
2018-01-10T21:02:06.875Z,24.20
2018-01-10T21:04:34.382Z,21.37
2018-01-10T21:07:01.872Z,28.90
2018-01-10T21:09:29.409Z,17.17
2018-01-10T21:11:57.636Z,21.17
2018-01-10T21:14:25.156Z,23.80
2018-01-10T21:16:52.645Z,33.50
2018-01-10T21:19:20.129Z,25.77
2018-01-10T21:21:47.738Z,23.90
2018-01-10T21:24:15.234Z,17.83
2018-01-10T21:26:42.791Z,24.03
2018-01-10T21:29:10.279Z,16.37
2018-01-10T21:31:37.780Z,17.50
2018-01-10T21:34:05.278Z,18.50
2018-01-10T21:36:32.777Z,18.43
2018-01-10T21:39:00.296Z,21.73
2018-01-10T21:41:29.309Z,20.90
2018-01-10T21:43:57.559Z,20.67
2018-01-10T21:46:25.082Z,27.97
2018-01-10T21:48:52.586Z,37.83
2018-01-10T21:51:20.105Z,43.47
2018-01-10T21:53:47.612Z,46.53
2018-01-10T21:56:15.113Z,39.93
2018-01-10T21:58:42.582Z,29.50
2018-01-10T22:01:10.438Z,29.03
2018-01-10T22:03:37.937Z,34.30
2018-01-10T22:06:05.489Z,37.97
2018-01-10T22:08:32.978Z,32.70
2018-01-10T22:11:01.256Z,32.93
2018-01-10T22:13:29.518Z,69.23
2018-01-10T22:15:57.791Z,44.17
2018-01-10T22:18:25.274Z,42.43
2018-01-10T22:20:52.806Z,35.37
2018-01-10T22:23:20.353Z,38.33
2018-01-10T22:25:48.688Z,48.40
2018-01-10T22:28:16.186Z,46.37
2018-01-10T22:30:43.704Z,35.03
2018-01-10T22:33:11.187Z,48.83
2018-01-10T22:35:38.699Z,41.80
2018-01-10T22:38:06.956Z,83.13
2018-01-10T22:40:34.542Z,109.13
2018-01-10T22:43:02.052Z,35.00
2018-01-10T22:45:29.554Z,84.73
2018-01-10T22:47:57.872Z,64.80
2018-01-10T22:50:25.867Z,80.77
2018-01-10T22:52:53.340Z,54.63
2018-01-10T22:55:21.590Z,39.33
2018-01-10T22:57:49.108Z,38.93
2018-01-10T23:00:16.595Z,42.67
2018-01-10T23:02:44.092Z,65.57
2018-01-10T23:05:12.428Z,40.90
2018-01-10T23:07:39.914Z,64.33
2018-01-10T23:10:07.458Z,39.57
2018-01-10T23:12:34.960Z,44.10
2018-01-10T23:15:03.200Z,60.40
2018-01-10T23:17:30.694Z,72.63
2018-01-10T23:19:58.970Z,47.77
2018-01-10T23:22:28.182Z,55.07
2018-01-10T23:24:55.666Z,63.30
2018-01-10T23:27:23.154Z,65.03
2018-01-10T23:29:50.660Z,45.80
2018-01-10T23:32:18.163Z,42.60
2018-01-10T23:34:45.624Z,35.47
2018-01-10T23:37:13.236Z,59.70
2018-01-10T23:39:40.709Z,41.17
2018-01-10T23:42:08.206Z,53.43
2018-01-10T23:44:35.678Z,83.80
2018-01-10T23:47:03.987Z,35.73
2018-01-10T23:49:31.448Z,44.80
2018-01-10T23:51:58.978Z,37.23
2018-01-10T23:54:27.244Z,44.33
2018-01-10T23:56:55.462Z,39.80
2018-01-10T23:59:23.010Z,54.93
